createdAt,value
2019-05-13T00:00:59.402Z,5.8
2019-05-13T00:01:59.533Z,6.7
2019-05-13T00:02:59.662Z,7.1
2019-05-13T00:03:59.782Z,6.5
2019-05-13T00:04:59.927Z,9.3
2019-05-13T00:06:00.081Z,6.4
2019-05-13T00:07:00.155Z,6
2019-05-13T00:10:00.466Z,4
2019-05-13T00:11:00.602Z,6.8
2019-05-13T00:12:00.718Z,8.4
2019-05-13T00:13:00.821Z,5.9
2019-05-13T00:14:00.913Z,7.2
2019-05-13T00:15:03.536Z,8.2
2019-05-13T00:16:03.668Z,7.8
2019-05-13T00:17:04.180Z,5.9
2019-05-13T00:19:03.949Z,6.7
2019-05-13T00:21:03.600Z,5.9
2019-05-13T00:22:03.719Z,8.2
2019-05-13T00:23:03.825Z,7.1
2019-05-13T00:24:04.073Z,8.2
2019-05-13T00:25:03.948Z,4.8
2019-05-13T00:26:03.734Z,5.9
2019-05-13T00:27:03.838Z,8.9
2019-05-13T00:30:04.230Z,7.3
2019-05-13T00:31:03.670Z,6.2
2019-05-13T00:32:04.665Z,8.1
2019-05-13T00:33:04.133Z,7.7
2019-05-13T00:34:03.647Z,5.8
2019-05-13T00:35:03.912Z,7.2
2019-05-13T00:36:03.949Z,8.3
2019-05-13T00:37:10.561Z,8.7
2019-05-13T00:41:03.914Z,7.9
2019-05-13T00:42:04.229Z,8.3
2019-05-13T00:43:04.159Z,4.9
2019-05-13T00:44:04.119Z,6
2019-05-13T00:45:04.221Z,8.4
2019-05-13T00:46:04.309Z,6.2
2019-05-13T00:47:04.726Z,6.4
2019-05-13T00:50:04.747Z,6.9
2019-05-13T00:51:04.838Z,6.3
2019-05-13T00:52:04.968Z,6
2019-05-13T00:53:05.053Z,7.2
2019-05-13T00:54:05.145Z,8.3
2019-05-13T00:55:05.247Z,8.1
2019-05-13T00:56:05.370Z,6.7
2019-05-13T00:57:05.505Z,4.9
2019-05-13T01:01:05.896Z,7.4
2019-05-13T01:02:06.015Z,5.2
2019-05-13T01:03:06.135Z,6
2019-05-13T01:04:06.231Z,6.7
2019-05-13T01:05:06.370Z,6
2019-05-13T01:06:06.498Z,7.3
2019-05-13T01:07:06.645Z,8.6
2019-05-13T01:10:06.966Z,6.7
2019-05-13T01:11:07.066Z,6.4
2019-05-13T01:12:07.213Z,8
2019-05-13T01:13:07.314Z,7.4
2019-05-13T01:14:07.403Z,7.1
2019-05-13T01:15:07.502Z,8.3
2019-05-13T01:16:07.616Z,5.8
2019-05-13T01:17:07.739Z,6.1
2019-05-13T01:20:08.091Z,7
2019-05-13T01:21:08.209Z,9.1
2019-05-13T01:22:08.321Z,6.9
2019-05-13T01:23:08.563Z,5.5
2019-05-13T01:24:08.497Z,8.8
2019-05-13T01:25:08.611Z,7.9
2019-05-13T01:26:08.703Z,7.2
2019-05-13T01:27:08.822Z,8
2019-05-13T01:31:09.292Z,7.7
2019-05-13T01:32:10.408Z,6.1
2019-05-13T01:33:09.646Z,7.4
2019-05-13T01:36:09.842Z,5.5
2019-05-13T01:37:09.957Z,11.3
2019-05-13T01:40:10.221Z,6
2019-05-13T01:41:10.328Z,6.5
2019-05-13T01:42:10.433Z,6.6
2019-05-13T01:43:10.617Z,7.4
2019-05-13T01:44:10.588Z,8.3
2019-05-13T01:45:10.719Z,7
2019-05-13T01:46:10.809Z,7.5
2019-05-13T01:47:10.907Z,5.3
2019-05-13T01:51:13.167Z,6.5
2019-05-13T01:52:13.637Z,6.9
2019-05-13T01:53:14.416Z,7.6
2019-05-13T01:54:14.174Z,9.5
2019-05-13T01:55:14.477Z,5.5
2019-05-13T01:56:14.096Z,6.8
2019-05-13T01:57:14.242Z,7.1
2019-05-13T01:59:14.897Z,7.6
2019-05-13T02:01:13.790Z,9.9
2019-05-13T02:02:13.873Z,5.7
2019-05-13T02:03:14.407Z,8.5
2019-05-13T02:07:14.351Z,8.4
2019-05-13T02:11:13.434Z,7.6
2019-05-13T02:12:13.561Z,6.3
2019-05-13T02:13:14.713Z,9.7
2019-05-13T02:14:14.799Z,8.3
2019-05-13T02:15:14.469Z,6.9
2019-05-13T02:16:14.464Z,7.8
2019-05-13T02:17:14.580Z,6.1
2019-05-13T02:20:14.881Z,6.3
2019-05-13T02:21:15.204Z,8.6
2019-05-13T02:22:14.633Z,8.3
2019-05-13T02:23:14.580Z,8.8
2019-05-13T02:24:14.627Z,7.8
2019-05-13T02:25:14.665Z,6
2019-05-13T02:26:14.750Z,8
2019-05-13T02:27:14.847Z,7.4
2019-05-13T02:31:22.440Z,9.3
2019-05-13T02:32:16.338Z,8.4
2019-05-13T02:33:15.450Z,9.5
2019-05-13T02:34:15.554Z,5.6
2019-05-13T02:35:15.678Z,6.5
2019-05-13T02:36:15.784Z,9.7
2019-05-13T02:37:15.890Z,9.9
2019-05-13T02:42:16.337Z,6.5
2019-05-13T02:43:16.438Z,6.4
2019-05-13T02:44:16.536Z,7
2019-05-13T02:45:16.679Z,6.6
2019-05-13T02:46:16.779Z,7.3
2019-05-13T02:50:17.204Z,8.3
2019-05-13T02:51:17.302Z,8.9
2019-05-13T02:52:17.415Z,7.4
2019-05-13T02:53:17.524Z,8.2
2019-05-13T02:54:17.598Z,8.1
2019-05-13T02:55:17.757Z,7.2
2019-05-13T02:56:17.689Z,8
2019-05-13T02:57:17.785Z,9.3
2019-05-13T03:00:18.124Z,7
2019-05-13T03:01:18.246Z,5.3
2019-05-13T03:02:18.375Z,8.6
2019-05-13T03:03:18.464Z,6.3
2019-05-13T03:04:18.688Z,8.2
2019-05-13T03:05:18.698Z,5.2
2019-05-13T03:06:18.631Z,5.2
2019-05-13T03:07:18.748Z,9.1
2019-05-13T03:11:22.451Z,5.5
2019-05-13T03:12:22.983Z,6.6
2019-05-13T03:13:23.305Z,8
2019-05-13T03:14:23.776Z,9.4
2019-05-13T03:15:23.060Z,6.2
2019-05-13T03:16:23.038Z,6.9
2019-05-13T03:17:22.272Z,7.3
2019-05-13T03:19:22.371Z,5.9
2019-05-13T03:20:22.741Z,7.7
2019-05-13T03:21:23.115Z,7.3
2019-05-13T03:22:22.346Z,7.8
2019-05-13T03:23:22.684Z,7.2
2019-05-13T03:24:22.706Z,8.4
2019-05-13T03:25:22.599Z,6
2019-05-13T03:26:23.385Z,6.6
2019-05-13T03:27:24.814Z,6.7
2019-05-13T03:29:22.122Z,6.2
2019-05-13T03:30:25.041Z,7.2
2019-05-13T03:31:26.082Z,6.4
2019-05-13T03:32:26.094Z,6.4
2019-05-13T03:33:27.219Z,6.5
2019-05-13T03:34:26.131Z,8.4
2019-05-13T03:35:26.423Z,8
2019-05-13T03:36:25.698Z,8.6
2019-05-13T03:37:26.012Z,7.4
2019-05-13T03:38:22.579Z,6.8
2019-05-13T03:40:23.041Z,8.6
2019-05-13T03:41:22.879Z,8.4
2019-05-13T03:42:22.633Z,9.3
2019-05-13T03:43:22.903Z,6.9
2019-05-13T03:44:23.505Z,10.2
2019-05-13T03:45:22.213Z,8
2019-05-13T03:46:22.654Z,9.5
2019-05-13T03:47:23.143Z,8.6
2019-05-13T03:48:23.538Z,9.8
2019-05-13T03:49:23.224Z,9.9
2019-05-13T03:50:22.922Z,9
2019-05-13T03:51:22.233Z,7.6
2019-05-13T03:52:22.451Z,5.8
2019-05-13T03:53:23.490Z,6.2
2019-05-13T03:55:22.904Z,6.1
2019-05-13T03:57:23.176Z,6.2
2019-05-13T03:59:22.589Z,8.5
2019-05-13T04:00:23.468Z,8.3
2019-05-13T04:01:22.876Z,7.5
2019-05-13T04:02:22.692Z,10.6
2019-05-13T04:03:22.850Z,8.7
2019-05-13T04:06:23.173Z,6.4
2019-05-13T04:07:23.860Z,9.8
2019-05-13T04:08:22.891Z,7.8
2019-05-13T04:09:30.804Z,6.2
2019-05-13T04:10:23.546Z,9
2019-05-13T04:11:22.787Z,8.9
2019-05-13T04:12:22.969Z,8.8
2019-05-13T04:13:23.438Z,7.3
2019-05-13T04:14:23.291Z,9.4
2019-05-13T04:15:23.674Z,6.5
2019-05-13T04:16:24.084Z,8.4
2019-05-13T04:17:24.220Z,6.9
2019-05-13T04:18:23.899Z,7.1
2019-05-13T04:19:23.478Z,8.5
2019-05-13T04:20:23.577Z,7.9
2019-05-13T04:21:23.079Z,9.2
2019-05-13T04:22:23.314Z,9.2
2019-05-13T04:23:23.608Z,8.3
2019-05-13T04:24:23.288Z,11
2019-05-13T04:25:23.529Z,9.6
2019-05-13T04:26:23.938Z,9.4
2019-05-13T04:27:23.645Z,8.6
2019-05-13T04:28:23.395Z,10.4
2019-05-13T04:29:23.724Z,12.8
2019-05-13T04:30:23.488Z,7.1
2019-05-13T04:31:23.533Z,10.9
2019-05-13T04:32:28.373Z,10.6
2019-05-13T04:33:24.649Z,9.3
2019-05-13T04:34:23.693Z,9.4
2019-05-13T04:35:23.927Z,12.4
2019-05-13T04:36:23.982Z,10.4
2019-05-13T04:37:23.852Z,11.4
2019-05-13T04:38:24.005Z,10.6
2019-05-13T04:39:39.443Z,11.2
2019-05-13T04:40:25.098Z,12.5
2019-05-13T04:41:24.233Z,10.6
2019-05-13T04:42:24.372Z,8.3
2019-05-13T04:43:24.542Z,10.3
2019-05-13T04:44:24.547Z,13.4
2019-05-13T04:45:25.602Z,9.1
2019-05-13T04:46:24.743Z,12.5
2019-05-13T04:47:24.893Z,11
2019-05-13T04:48:25.069Z,11.6
2019-05-13T04:49:25.044Z,14.3
2019-05-13T04:50:25.213Z,11.1
2019-05-13T04:51:25.179Z,15.6
2019-05-13T04:52:25.323Z,13.4
2019-05-13T04:56:25.628Z,13.9
2019-05-13T04:57:25.765Z,14.4
2019-05-13T04:58:25.945Z,11.6
2019-05-13T04:59:25.969Z,10.8
2019-05-13T05:00:25.995Z,10.7
2019-05-13T05:01:25.985Z,15.1
2019-05-13T05:02:36.464Z,11.8
2019-05-13T05:03:32.852Z,11.4
2019-05-13T05:04:30.824Z,12.5
2019-05-13T05:05:27.536Z,15.9
2019-05-13T05:06:26.698Z,15.9
2019-05-13T05:07:26.673Z,13.8
2019-05-13T05:08:26.825Z,10.8
2019-05-13T05:09:26.908Z,17.6
2019-05-13T05:10:34.557Z,10.9
2019-05-13T05:11:28.000Z,14.2
2019-05-13T05:12:27.158Z,14.1
2019-05-13T05:13:27.153Z,13.3
2019-05-13T05:14:27.333Z,12.9
2019-05-13T05:15:27.432Z,12.1
2019-05-13T05:21:27.569Z,16.4
2019-05-13T05:22:27.561Z,12.1
2019-05-13T05:23:27.543Z,13.8
2019-05-13T05:24:27.732Z,12.7
2019-05-13T05:25:29.276Z,14.8
2019-05-13T05:26:31.151Z,21.1
2019-05-13T05:27:28.738Z,18.5
2019-05-13T05:28:27.897Z,10.5
2019-05-13T05:29:27.886Z,14.5
2019-05-13T05:30:28.040Z,14
2019-05-13T05:31:28.027Z,13.7
2019-05-13T05:32:28.276Z,14.2
2019-05-13T05:33:28.265Z,15.1
2019-05-13T05:34:28.427Z,12.6
2019-05-13T05:35:28.459Z,11.6
2019-05-13T05:36:28.455Z,16.799999
2019-05-13T05:37:28.439Z,14.6
2019-05-13T05:38:28.581Z,10.2
2019-05-13T05:39:28.701Z,10.6
2019-05-13T05:40:31.681Z,13.1
2019-05-13T05:42:29.099Z,13.5
2019-05-13T05:46:32.057Z,10.5
2019-05-13T05:47:31.724Z,12.4
2019-05-13T05:48:31.458Z,9.5
2019-05-13T05:49:31.711Z,14.4
2019-05-13T05:50:31.888Z,12.4
2019-05-13T05:51:31.558Z,11.9
2019-05-13T05:52:31.577Z,16.4
2019-05-13T05:53:31.875Z,14.2
2019-05-13T05:54:31.741Z,9.3
2019-05-13T05:55:31.751Z,10.2
2019-05-13T05:56:32.257Z,12.1
2019-05-13T05:57:31.525Z,11
2019-05-13T05:58:31.497Z,9.4
2019-05-13T05:59:32.070Z,12.2
2019-05-13T06:00:32.327Z,14.4
2019-05-13T06:01:32.758Z,12.4
2019-05-13T06:02:32.250Z,14.6
2019-05-13T06:03:32.727Z,15.7
2019-05-13T06:04:32.574Z,11.9
2019-05-13T06:05:31.852Z,12.6
2019-05-13T06:06:32.884Z,13.1
2019-05-13T06:07:32.389Z,13.5
2019-05-13T06:08:32.292Z,10.4
2019-05-13T06:09:32.521Z,14.3
2019-05-13T06:10:43.968Z,13.8
2019-05-13T06:11:32.666Z,11.3
2019-05-13T06:12:31.649Z,11.5
2019-05-13T06:13:31.671Z,12.7
2019-05-13T06:14:32.582Z,10.1
2019-05-13T06:15:32.801Z,12.8
2019-05-13T06:16:32.171Z,15
2019-05-13T06:17:32.057Z,13.4
2019-05-13T06:18:32.493Z,13
2019-05-13T06:19:32.208Z,10.1
2019-05-13T06:20:31.953Z,11.1
2019-05-13T06:21:32.270Z,11.3
2019-05-13T06:22:32.185Z,10.6
2019-05-13T06:23:32.187Z,11.3
2019-05-13T06:24:32.153Z,11.1
2019-05-13T06:25:33.582Z,13.7
2019-05-13T06:26:33.444Z,10.2
2019-05-13T06:27:32.620Z,12.4
2019-05-13T06:28:32.646Z,11.6
2019-05-13T06:29:32.636Z,9
2019-05-13T06:30:32.781Z,11.3
2019-05-13T06:31:32.963Z,10.7
2019-05-13T06:32:32.928Z,12.9
2019-05-13T06:33:33.103Z,12.8
2019-05-13T06:34:33.186Z,10.9
2019-05-13T06:35:33.090Z,12
2019-05-13T06:36:33.102Z,11.9
2019-05-13T06:37:33.107Z,14.2
2019-05-13T06:38:33.091Z,12.3
2019-05-13T06:39:33.248Z,11.5
2019-05-13T06:40:33.424Z,9.8
2019-05-13T06:41:33.433Z,10.9
2019-05-13T06:42:33.476Z,10.1
2019-05-13T06:43:33.466Z,12
2019-05-13T06:44:33.460Z,9.6
2019-05-13T06:45:33.459Z,10.8
2019-05-13T06:46:33.492Z,11
2019-05-13T06:47:36.142Z,12.1
2019-05-13T06:48:34.493Z,11.2
2019-05-13T06:49:33.664Z,10.3
2019-05-13T06:50:33.692Z,10.7
2019-05-13T06:51:33.720Z,11
2019-05-13T06:52:33.765Z,14.1
2019-05-13T06:53:33.750Z,10.8
2019-05-13T06:54:33.742Z,11.7
2019-05-13T06:55:33.774Z,9.9
2019-05-13T06:56:33.771Z,11
2019-05-13T06:57:33.803Z,12.6
2019-05-13T06:58:33.809Z,11.4
2019-05-13T06:59:33.789Z,9.3
2019-05-13T07:00:34.849Z,11.6
2019-05-13T07:01:34.960Z,10
2019-05-13T07:02:34.014Z,13.5
2019-05-13T07:03:34.011Z,10.1
2019-05-13T07:04:34.161Z,10.8
2019-05-13T07:05:34.145Z,11.8
2019-05-13T07:06:34.292Z,9.4
2019-05-13T07:07:34.482Z,12.5
2019-05-13T07:08:34.513Z,9.5
2019-05-13T07:09:34.505Z,10.4
2019-05-13T07:10:34.491Z,13.6
2019-05-13T07:11:34.690Z,11
2019-05-13T07:12:34.702Z,11
2019-05-13T07:13:34.695Z,11.2
2019-05-13T07:14:34.679Z,11.8
2019-05-13T07:15:34.850Z,11.1
2019-05-13T07:16:34.846Z,8.7
2019-05-13T07:17:34.860Z,9
2019-05-13T07:18:34.890Z,11
2019-05-13T07:19:34.895Z,11.5
2019-05-13T07:20:35.002Z,10.7
2019-05-13T07:21:35.005Z,11
2019-05-13T07:22:35.011Z,9.7
2019-05-13T07:23:35.111Z,9.9
2019-05-13T07:24:35.119Z,7.6
2019-05-13T07:25:35.108Z,8.4
2019-05-13T07:26:35.104Z,8.5
2019-05-13T07:27:35.091Z,15.7
2019-05-13T07:28:35.125Z,10.6
2019-05-13T07:29:35.128Z,9.8
2019-05-13T07:30:35.120Z,12.7
2019-05-13T07:31:35.120Z,9.4
2019-05-13T07:32:35.109Z,11.8
2019-05-13T07:33:35.129Z,8.3
2019-05-13T07:34:35.110Z,10.7
2019-05-13T07:35:37.741Z,9.2
2019-05-13T07:36:36.413Z,8.3
2019-05-13T07:37:36.546Z,10
2019-05-13T07:38:35.765Z,11.1
2019-05-13T07:39:35.749Z,8.9
2019-05-13T07:40:35.904Z,10.9
2019-05-13T07:41:39.407Z,9.2
2019-05-13T07:42:37.019Z,10.1
2019-05-13T07:43:36.055Z,10.2
2019-05-13T07:44:36.027Z,7.5
2019-05-13T07:45:36.019Z,6.9
2019-05-13T07:46:36.016Z,5.2
2019-05-13T07:47:36.025Z,8.6
2019-05-13T07:48:36.054Z,7.4
2019-05-13T07:49:36.051Z,8.4
2019-05-13T07:50:50.243Z,8.7
2019-05-13T07:51:37.185Z,11.4
2019-05-13T07:52:36.211Z,9.2
2019-05-13T07:53:36.239Z,9.3
2019-05-13T07:54:36.284Z,8.1
2019-05-13T07:55:36.291Z,8.8
2019-05-13T07:56:36.298Z,7.4
2019-05-13T07:57:36.278Z,7
2019-05-13T07:58:37.682Z,6.8
2019-05-13T07:59:37.464Z,7.1
2019-05-13T08:00:36.644Z,7.9
2019-05-13T08:01:36.642Z,6.7
2019-05-13T08:02:36.637Z,7.5
2019-05-13T08:03:36.674Z,7
2019-05-13T08:04:36.697Z,5.2
2019-05-13T08:05:37.744Z,9.1
2019-05-13T08:06:36.727Z,5.7
2019-05-13T08:07:36.932Z,7.1
2019-05-13T08:08:36.950Z,6.4
2019-05-13T08:09:36.974Z,6.2
2019-05-13T08:10:36.965Z,6.6
2019-05-13T08:11:53.536Z,7.1
2019-05-13T08:12:37.962Z,5.9
2019-05-13T08:13:36.953Z,6.2
2019-05-13T08:14:36.974Z,7
2019-05-13T08:15:37.013Z,7.4
2019-05-13T08:16:36.999Z,5.7
2019-05-13T08:17:40.796Z,6.7
2019-05-13T08:18:38.151Z,5.6
2019-05-13T08:19:37.320Z,6.6
2019-05-13T08:20:37.341Z,7
2019-05-13T08:21:37.347Z,5.1
2019-05-13T08:22:37.336Z,8.5
2019-05-13T08:23:37.478Z,6.9
2019-05-13T08:24:37.675Z,6.5
2019-05-13T08:25:37.669Z,5.9
2019-05-13T08:26:37.921Z,7.9
2019-05-13T08:27:37.783Z,7.3
2019-05-13T08:28:53.738Z,6.2
2019-05-13T08:29:39.001Z,7.4
2019-05-13T08:30:38.048Z,7.5
2019-05-13T08:31:38.044Z,8.5
2019-05-13T08:32:38.010Z,6.5
2019-05-13T08:33:38.211Z,7.3
2019-05-13T08:34:38.229Z,6.8
2019-05-13T08:35:38.272Z,6
2019-05-13T08:36:39.534Z,6.1
2019-05-13T08:37:41.348Z,6.7
2019-05-13T08:38:42.898Z,6.6
2019-05-13T08:39:41.439Z,6.2
2019-05-13T08:40:42.101Z,5.6
2019-05-13T08:41:42.081Z,7.6
2019-05-13T08:42:41.484Z,6.7
2019-05-13T08:43:41.888Z,7.5
2019-05-13T08:44:41.615Z,7
2019-05-13T08:45:42.036Z,7.3
2019-05-13T08:46:41.362Z,7.5
2019-05-13T08:47:41.915Z,9
2019-05-13T08:48:42.636Z,8.6
2019-05-13T08:49:41.405Z,6.9
2019-05-13T08:50:41.770Z,6.7
2019-05-13T08:51:42.059Z,6.7
2019-05-13T08:52:42.195Z,6.9
2019-05-13T08:53:42.424Z,6.7
2019-05-13T08:54:41.751Z,5.4
2019-05-13T08:55:42.467Z,7
2019-05-13T08:56:41.592Z,6.3
2019-05-13T08:57:41.969Z,7.7
2019-05-13T08:58:41.321Z,5
2019-05-13T08:59:42.161Z,6.5
2019-05-13T09:00:41.536Z,6.5
2019-05-13T09:01:42.313Z,5.5
2019-05-13T09:02:41.980Z,5.6
2019-05-13T09:03:41.677Z,4.9
2019-05-13T09:04:42.163Z,5.2
2019-05-13T09:05:41.461Z,5.2
2019-05-13T09:06:41.832Z,4.6
2019-05-13T09:07:41.422Z,5.1
2019-05-13T09:08:42.395Z,6.4
2019-05-13T09:09:42.017Z,5.3
2019-05-13T09:10:41.320Z,5.4
2019-05-13T09:11:42.121Z,6.2
2019-05-13T09:12:43.292Z,2.8
2019-05-13T09:13:42.377Z,3.5
2019-05-13T09:14:41.616Z,5.1
2019-05-13T09:15:42.179Z,4.6
2019-05-13T09:16:42.239Z,4.1
2019-05-13T09:17:42.513Z,4.5
2019-05-13T09:18:42.567Z,5.5
2019-05-13T09:19:42.494Z,5
2019-05-13T09:20:41.766Z,3.7
2019-05-13T09:21:42.393Z,5.6
2019-05-13T09:22:41.795Z,5.1
2019-05-13T09:23:41.958Z,5.4
2019-05-13T09:24:42.586Z,4.4
2019-05-13T09:25:42.092Z,6.9
2019-05-13T09:26:42.349Z,5.2
2019-05-13T09:27:42.541Z,6.3
2019-05-13T09:28:42.099Z,6.1
2019-05-13T09:29:42.796Z,4.3
2019-05-13T09:30:42.565Z,4.4
2019-05-13T09:31:42.393Z,5.7
2019-05-13T09:32:42.740Z,3.5
2019-05-13T09:33:42.498Z,2.1
2019-05-13T09:35:42.811Z,4.7
2019-05-13T09:36:42.973Z,4.6
2019-05-13T09:37:42.975Z,5.8
2019-05-13T09:38:42.969Z,9.1
2019-05-13T09:40:42.953Z,6.3
2019-05-13T09:41:44.550Z,2.7
2019-05-13T09:42:51.003Z,5.6
2019-05-13T09:43:44.050Z,3.5
2019-05-13T09:44:43.214Z,5.6
2019-05-13T09:45:43.192Z,4.3
2019-05-13T09:46:43.365Z,3.5
2019-05-13T09:47:43.348Z,3.5
2019-05-13T09:48:43.489Z,4.8
2019-05-13T09:49:43.630Z,5.1
2019-05-13T09:50:43.765Z,4.6
2019-05-13T09:51:43.979Z,4.9
2019-05-13T09:52:43.968Z,5.5
2019-05-13T09:53:43.954Z,4.8
2019-05-13T09:54:44.101Z,5.9
2019-05-13T09:55:44.257Z,4.5
2019-05-13T09:56:45.476Z,5.9
2019-05-13T09:57:44.514Z,4.2
2019-05-13T09:58:44.505Z,3.9
2019-05-13T09:59:44.675Z,6.1
2019-05-13T10:00:44.685Z,3.4
2019-05-13T10:01:44.671Z,5
2019-05-13T10:02:44.673Z,4.2
2019-05-13T10:03:53.562Z,5
2019-05-13T10:04:45.784Z,3.5
2019-05-13T10:05:44.977Z,7.5
2019-05-13T10:06:44.960Z,4.1
2019-05-13T10:07:45.149Z,3.1
2019-05-13T10:08:45.146Z,4.3
2019-05-13T10:10:45.283Z,3.5
2019-05-13T10:11:45.295Z,3.2
2019-05-13T10:12:45.327Z,4.2
2019-05-13T10:13:45.304Z,4.8
2019-05-13T10:14:45.298Z,3.5
2019-05-13T10:15:48.657Z,3.2
2019-05-13T10:16:46.596Z,3.4
2019-05-13T10:17:45.611Z,3.7
2019-05-13T10:18:45.593Z,4.5
2019-05-13T10:19:45.800Z,3.4
2019-05-13T10:20:45.792Z,4.8
2019-05-13T10:21:45.769Z,5.3
2019-05-13T10:22:45.970Z,3.5
2019-05-13T10:23:45.972Z,4.5
2019-05-13T10:24:45.960Z,5.2
2019-05-13T10:25:45.980Z,5
2019-05-13T10:26:45.960Z,4.1
2019-05-13T10:27:46.210Z,3.7
2019-05-13T10:28:46.207Z,3.3
2019-05-13T10:29:46.186Z,4.1
2019-05-13T10:30:46.332Z,4.8
2019-05-13T10:31:46.488Z,3.2
2019-05-13T10:32:46.674Z,4.5
2019-05-13T10:33:46.712Z,2.8
2019-05-13T10:34:46.700Z,3.2
2019-05-13T10:35:46.720Z,3
2019-05-13T10:36:46.737Z,3.5
2019-05-13T10:37:46.719Z,3.6
2019-05-13T10:38:46.904Z,2.8
2019-05-13T10:39:46.921Z,3.7
2019-05-13T10:40:46.932Z,2.9
2019-05-13T10:41:46.926Z,3.2
2019-05-13T10:42:46.930Z,3
2019-05-13T10:43:46.931Z,3.3
2019-05-13T10:44:46.944Z,2.7
2019-05-13T10:45:46.946Z,2.4
2019-05-13T10:46:46.934Z,2.5
2019-05-13T10:47:47.101Z,3.9
2019-05-13T10:48:47.174Z,2.7
2019-05-13T10:49:47.267Z,2.3
2019-05-13T10:50:47.293Z,1.9
2019-05-13T10:51:47.279Z,3.2
2019-05-13T10:52:47.435Z,4.5
2019-05-13T10:53:47.473Z,2.9
2019-05-13T10:54:47.478Z,2.9
2019-05-13T10:55:47.529Z,2.1
2019-05-13T10:56:47.522Z,1.6
2019-05-13T10:57:47.702Z,3.2
2019-05-13T10:58:47.721Z,2.4
2019-05-13T10:59:47.731Z,3.7
2019-05-13T11:00:47.718Z,3.8
2019-05-13T11:01:47.874Z,3.4
2019-05-13T11:02:48.042Z,2.3
2019-05-13T11:03:48.058Z,3.3
2019-05-13T11:04:48.065Z,2.6
2019-05-13T11:05:48.103Z,3.3
2019-05-13T11:06:48.103Z,4
2019-05-13T11:07:48.098Z,2.7
2019-05-13T11:08:48.127Z,3.2
2019-05-13T11:09:48.150Z,2.8
2019-05-13T11:10:48.140Z,2.4
2019-05-13T11:11:48.160Z,2.1
2019-05-13T11:12:48.162Z,4.5
2019-05-13T11:13:56.162Z,3.1
2019-05-13T11:14:51.358Z,2.2
2019-05-13T11:15:49.997Z,2.8
2019-05-13T11:16:52.228Z,2.7
2019-05-13T11:17:51.769Z,2.6
2019-05-13T11:18:51.650Z,2.5
2019-05-13T11:19:49.456Z,2.3
2019-05-13T11:20:48.453Z,2.2
2019-05-13T11:21:50.710Z,2.8
2019-05-13T11:22:51.447Z,2.4
2019-05-13T11:23:51.747Z,1.9
2019-05-13T11:24:51.782Z,2.5
2019-05-13T11:25:51.545Z,3.1
2019-05-13T11:26:52.235Z,3.2
2019-05-13T11:27:52.264Z,3.6
2019-05-13T11:28:52.081Z,1.9
2019-05-13T11:29:52.278Z,1.9
2019-05-13T11:30:51.949Z,2.5
2019-05-13T11:31:52.320Z,2.5
2019-05-13T11:32:51.599Z,2.6
2019-05-13T11:33:51.968Z,3.1
2019-05-13T11:34:52.730Z,2.6
2019-05-13T11:35:52.274Z,2.1
2019-05-13T11:36:53.102Z,3.8
2019-05-13T11:37:52.146Z,3.5
2019-05-13T11:38:52.993Z,2.9
2019-05-13T11:39:51.612Z,4
2019-05-13T11:40:52.290Z,4.5
2019-05-13T11:41:50.880Z,2.2
2019-05-13T11:42:51.916Z,2.8
2019-05-13T11:44:09.015Z,2.3
2019-05-13T11:44:52.710Z,2.5
2019-05-13T11:45:51.747Z,4.7
2019-05-13T11:46:52.919Z,5.3
2019-05-13T11:47:52.122Z,3.1
2019-05-13T11:48:51.993Z,2.8
2019-05-13T11:49:52.125Z,2.2
2019-05-13T11:50:53.995Z,3
2019-05-13T11:51:52.009Z,2.8
2019-05-13T11:52:52.393Z,3.5
2019-05-13T11:53:52.409Z,2.6
2019-05-13T11:54:53.702Z,3.7
2019-05-13T11:55:52.337Z,2.7
2019-05-13T11:57:01.113Z,2.2
2019-05-13T11:59:52.626Z,2.6
2019-05-13T12:00:53.033Z,2.7
2019-05-13T12:01:53.691Z,2.4
2019-05-13T12:02:54.631Z,2.7
2019-05-13T12:03:53.022Z,3.3
2019-05-13T12:04:53.414Z,2.4
2019-05-13T12:05:53.679Z,3.5
2019-05-13T12:06:54.378Z,2.6
2019-05-13T12:07:53.576Z,4
2019-05-13T12:08:55.136Z,3.1
2019-05-13T12:09:52.916Z,2.7
2019-05-13T12:10:52.245Z,2.3
2019-05-13T12:11:51.950Z,3.9
2019-05-13T12:12:51.954Z,2.7
2019-05-13T12:13:52.720Z,2.2
2019-05-13T12:15:20.184Z,2.7
2019-05-13T12:16:52.097Z,2.6
2019-05-13T12:17:52.895Z,3.3
2019-05-13T12:18:52.787Z,3.2
2019-05-13T12:19:54.185Z,2.8
2019-05-13T12:20:54.180Z,3.3
2019-05-13T12:21:53.939Z,2.9
2019-05-13T12:22:53.400Z,2.2
2019-05-13T12:23:52.986Z,2.4
2019-05-13T12:24:52.704Z,2
2019-05-13T12:25:53.278Z,4.3
2019-05-13T12:26:53.429Z,2.8
2019-05-13T12:27:52.937Z,2.6
2019-05-13T12:28:53.776Z,5
2019-05-13T12:29:53.323Z,2.2
2019-05-13T12:30:53.365Z,2.4
2019-05-13T12:31:53.309Z,2.7
2019-05-13T12:32:53.294Z,2.4
2019-05-13T12:33:53.286Z,4
2019-05-13T12:34:53.414Z,4.4
2019-05-13T12:35:53.924Z,2.4
2019-05-13T12:36:53.782Z,2.2
2019-05-13T12:37:53.795Z,2.2
2019-05-13T12:38:54.409Z,3.3
2019-05-13T12:39:53.805Z,2.7
2019-05-13T12:40:53.807Z,6.8
2019-05-13T12:41:54.103Z,4.3
2019-05-13T12:42:54.119Z,7
2019-05-13T12:43:54.248Z,5
2019-05-13T12:45:09.254Z,2.4
2019-05-13T12:45:55.283Z,2.5
2019-05-13T12:46:54.659Z,1.8
2019-05-13T12:47:54.300Z,2.2
2019-05-13T12:48:54.328Z,2.9
2019-05-13T12:49:54.566Z,3.3
2019-05-13T12:50:54.500Z,1.7
2019-05-13T12:52:00.511Z,2.2
2019-05-13T12:52:55.361Z,2.3
2019-05-13T12:53:54.518Z,2.6
2019-05-13T12:54:54.515Z,1.9
2019-05-13T12:55:56.779Z,1.6
2019-05-13T12:56:55.702Z,2.6
2019-05-13T12:57:54.678Z,2
2019-05-13T12:58:54.691Z,6.7
2019-05-13T12:59:54.716Z,4.2
2019-05-13T13:00:54.756Z,4
2019-05-13T13:01:54.904Z,6.5
2019-05-13T13:02:54.876Z,2.3
2019-05-13T13:03:55.074Z,3.8
2019-05-13T13:05:08.817Z,2.2
2019-05-13T13:06:19.777Z,2.5
2019-05-13T13:06:56.249Z,1.5
2019-05-13T13:08:15.868Z,3.3
2019-05-13T13:08:56.399Z,4
2019-05-13T13:09:55.379Z,4.5
2019-05-13T13:10:55.406Z,8
2019-05-13T13:11:55.412Z,9.1
2019-05-13T13:12:55.476Z,7.5
2019-05-13T13:13:59.238Z,2.8
2019-05-13T13:14:56.571Z,2.3
2019-05-13T13:15:55.747Z,3.1
2019-05-13T13:16:55.728Z,3.1
2019-05-13T13:17:55.926Z,2.6
2019-05-13T13:18:55.954Z,4.7
2019-05-13T13:20:04.543Z,2.8
2019-05-13T13:21:01.177Z,2.8
2019-05-13T13:22:03.176Z,3.3
2019-05-13T13:22:57.110Z,2.1
2019-05-13T13:23:56.114Z,2.1
2019-05-13T13:24:57.521Z,3.5
2019-05-13T13:25:57.383Z,3
2019-05-13T13:26:56.251Z,2.9
2019-05-13T13:28:10.959Z,2.1
2019-05-13T13:28:57.394Z,2.7
2019-05-13T13:30:03.015Z,2.3
2019-05-13T13:30:57.723Z,2.8
2019-05-13T13:31:56.732Z,3.8
2019-05-13T13:32:56.729Z,2
2019-05-13T13:34:06.480Z,3.1
2019-05-13T13:34:57.848Z,1.9
2019-05-13T13:36:00.046Z,2.2
2019-05-13T13:36:58.129Z,2.8
2019-05-13T13:37:57.463Z,4.1
2019-05-13T13:38:57.273Z,2
2019-05-13T13:39:57.467Z,2.2
2019-05-13T13:40:57.502Z,3.8
2019-05-13T13:41:57.496Z,1.7
2019-05-13T13:42:57.627Z,2.9
2019-05-13T13:43:57.653Z,2.8
2019-05-13T13:44:57.672Z,3.1
2019-05-13T13:46:31.625Z,2.6
2019-05-13T13:46:58.805Z,2.5
2019-05-13T13:48:03.444Z,3.5
2019-05-13T13:48:59.077Z,3
2019-05-13T13:49:58.055Z,1.8
2019-05-13T13:50:58.237Z,3.2
2019-05-13T13:51:58.231Z,2.9
2019-05-13T13:52:58.240Z,3.6
2019-05-13T13:53:58.247Z,2.1
2019-05-13T13:55:03.278Z,1.5
2019-05-13T13:56:02.165Z,1.9
2019-05-13T13:57:01.870Z,3.4
2019-05-13T13:58:01.678Z,2.9
2019-05-13T13:59:00.115Z,3.1
2019-05-13T14:00:28.455Z,2.2
2019-05-13T14:01:58.813Z,2.7
2019-05-13T14:02:58.826Z,2.5
2019-05-13T14:03:58.937Z,2.9
2019-05-13T14:04:58.947Z,3.6
2019-05-13T14:05:59.000Z,1.8
2019-05-13T14:08:01.617Z,2.8
2019-05-13T14:09:01.500Z,4.4
2019-05-13T14:10:05.964Z,3.9
2019-05-13T14:11:02.047Z,3.1
2019-05-13T14:12:01.973Z,2.8
2019-05-13T14:13:04.026Z,1.9
2019-05-13T14:14:02.116Z,3.5
2019-05-13T14:15:01.878Z,3.7
2019-05-13T14:16:01.818Z,2.1
2019-05-13T14:17:02.389Z,2.6
2019-05-13T14:18:00.862Z,3.5
2019-05-13T14:18:59.992Z,1.9
2019-05-13T14:19:59.962Z,2.6
2019-05-13T14:21:00.132Z,2.5
2019-05-13T14:22:01.676Z,1.9
2019-05-13T14:23:02.725Z,2.6
2019-05-13T14:25:00.498Z,2.1
2019-05-13T14:26:00.508Z,2.1
2019-05-13T14:27:02.848Z,2.4
2019-05-13T14:29:02.579Z,2
2019-05-13T14:31:01.840Z,1.8
2019-05-13T14:33:02.296Z,2.9
2019-05-13T15:11:02.317Z,1.8
2019-05-13T15:12:02.521Z,4.4
2019-05-13T15:13:03.104Z,2.8
2019-05-13T15:14:02.585Z,2.5
2019-05-13T15:15:02.409Z,4
2019-05-13T15:38:03.608Z,4.5
2019-05-13T15:39:03.589Z,3.1
2019-05-13T15:40:04.759Z,3.6
2019-05-13T15:41:03.749Z,5.1
2019-05-13T15:42:03.762Z,6
2019-05-13T16:12:04.834Z,2.4
2019-05-13T16:13:04.844Z,3.6
2019-05-13T16:14:04.887Z,4.4
2019-05-13T16:15:04.871Z,2.6
2019-05-13T16:16:04.896Z,2.8
2019-05-13T16:17:04.919Z,2.3
2019-05-13T16:18:04.960Z,2.3
2019-05-13T16:19:04.984Z,4
2019-05-13T16:20:04.996Z,2.9
2019-05-13T16:21:05.025Z,3.4
2019-05-13T16:22:05.046Z,4
2019-05-13T16:23:05.074Z,3.1
2019-05-13T16:24:05.120Z,3
2019-05-13T16:25:05.121Z,2.9
2019-05-13T16:26:05.155Z,3.1
2019-05-13T16:27:05.174Z,2.3
2019-05-13T16:28:05.213Z,3.4
2019-05-13T16:31:05.278Z,3.6
2019-05-13T16:32:05.411Z,3.3
2019-05-13T16:33:05.320Z,2.5
2019-05-13T16:34:05.380Z,3.8
2019-05-13T16:35:05.363Z,1.8
2019-05-13T16:47:05.728Z,3.4
2019-05-13T16:48:05.694Z,3
2019-05-13T16:49:05.915Z,1.8
2019-05-13T16:50:05.887Z,2.7
2019-05-13T16:51:06.103Z,3.4
2019-05-13T16:52:06.170Z,2.9
2019-05-13T17:11:06.670Z,3.4